createdAt,value
2023-05-22T00:01:32.839Z,85.44
2023-05-22T00:03:59.906Z,86.20
2023-05-22T00:07:03.825Z,87.82
2023-05-22T00:09:30.232Z,88.09
2023-05-22T00:11:56.613Z,88.64
2023-05-22T00:14:23.040Z,88.82
2023-05-22T00:16:50.247Z,88.95
2023-05-22T00:19:17.310Z,89.05
2023-05-22T00:21:44.197Z,88.91
2023-05-22T00:24:10.812Z,88.37
2023-05-22T00:26:37.421Z,89.22
2023-05-22T00:29:05.635Z,90.90
2023-05-22T00:31:32.054Z,91.75
2023-05-22T00:33:59.150Z,92.36
2023-05-22T00:36:25.721Z,91.98
2023-05-22T00:38:52.087Z,91.04
2023-05-22T00:41:18.723Z,91.69
2023-05-22T00:43:45.576Z,91.78
2023-05-22T00:46:12.639Z,92.97
2023-05-22T00:48:39.230Z,92.75
2023-05-22T00:51:07.153Z,93.50
2023-05-22T00:53:33.959Z,95.72
2023-05-22T00:56:00.939Z,96.32
2023-05-22T00:58:27.697Z,96.26
2023-05-22T01:00:55.482Z,95.62
2023-05-22T01:03:26.356Z,96.52
2023-05-22T01:05:54.094Z,97.55
2023-05-22T01:08:21.360Z,97.49
2023-05-22T01:10:52.366Z,97.70
2023-05-22T01:13:21.369Z,98.33
2023-05-22T01:15:57.115Z,97.64
2023-05-22T01:18:32.005Z,98.00
2023-05-22T01:21:23.800Z,98.33
2023-05-22T01:24:06.429Z,97.74
2023-05-22T01:27:05.052Z,98.95
2023-05-22T01:30:04.067Z,98.90
2023-05-22T01:32:34.119Z,98.68
2023-05-22T01:35:03.260Z,98.04
2023-05-22T01:37:30.855Z,98.36
2023-05-22T01:39:58.239Z,99.77
2023-05-22T01:42:24.952Z,99.72
2023-05-22T01:44:51.503Z,99.62
2023-05-22T01:47:18.097Z,100.00
2023-05-22T01:49:45.549Z,100.00
2023-05-22T01:52:29.890Z,100.00
2023-05-22T01:55:04.961Z,100.00
2023-05-22T01:57:39.051Z,100.00
2023-05-22T02:00:13.885Z,100.00
2023-05-22T02:02:49.662Z,100.00
2023-05-22T02:05:18.819Z,100.00
2023-05-22T02:07:46.126Z,100.00
2023-05-22T02:10:14.145Z,100.00
2023-05-22T02:12:41.725Z,100.00
2023-05-22T02:15:08.927Z,100.00
2023-05-22T02:17:42.424Z,100.00
2023-05-22T02:20:15.132Z,100.00
2023-05-22T02:22:44.320Z,100.00
2023-05-22T02:25:14.298Z,100.00
2023-05-22T02:27:45.089Z,100.00
2023-05-22T02:30:12.652Z,100.00
2023-05-22T02:32:40.267Z,100.00
2023-05-22T02:35:07.698Z,100.00
2023-05-22T02:37:34.347Z,100.00
2023-05-22T02:40:00.785Z,100.00
2023-05-22T02:42:27.248Z,100.00
2023-05-22T02:44:53.631Z,100.00
2023-05-22T02:47:20.135Z,100.00
2023-05-22T02:49:47.619Z,100.00
2023-05-22T02:52:13.983Z,100.00
2023-05-22T02:54:40.394Z,100.00
2023-05-22T02:57:06.845Z,100.00
2023-05-22T02:59:33.512Z,100.00
2023-05-22T03:01:59.937Z,100.00
2023-05-22T03:04:26.388Z,100.00
2023-05-22T03:06:52.885Z,100.00
2023-05-22T03:09:20.251Z,100.00
2023-05-22T03:11:46.748Z,100.00
2023-05-22T03:14:13.442Z,100.00
2023-05-22T03:16:39.909Z,100.00
2023-05-22T03:19:16.435Z,100.00
2023-05-22T03:21:44.399Z,100.00
2023-05-22T03:24:14.569Z,100.00
2023-05-22T03:26:41.826Z,100.00
2023-05-22T03:29:08.400Z,100.00
2023-05-22T03:31:36.411Z,100.00
2023-05-22T03:34:03.671Z,100.00
2023-05-22T03:36:32.444Z,100.00
2023-05-22T03:38:58.913Z,100.00
2023-05-22T03:41:25.448Z,100.00
2023-05-22T03:43:51.859Z,100.00
2023-05-22T03:46:18.330Z,100.00
2023-05-22T03:48:44.783Z,100.00
2023-05-22T03:51:11.360Z,100.00
2023-05-22T03:53:37.723Z,100.00
2023-05-22T03:56:04.219Z,100.00
2023-05-22T03:58:30.756Z,100.00
2023-05-22T04:00:58.604Z,100.00
2023-05-22T04:03:25.111Z,100.00
2023-05-22T04:05:51.668Z,100.00
2023-05-22T04:08:18.265Z,100.00
2023-05-22T04:10:48.503Z,100.00
2023-05-22T04:13:16.670Z,100.00
2023-05-22T04:15:46.749Z,100.00
2023-05-22T04:18:14.161Z,100.00
2023-05-22T04:20:41.098Z,100.00
2023-05-22T04:23:07.940Z,100.00
2023-05-22T04:25:34.520Z,100.00
2023-05-22T04:28:04.069Z,100.00
2023-05-22T04:30:33.733Z,100.00
2023-05-22T04:33:00.841Z,100.00
2023-05-22T04:35:29.391Z,100.00
2023-05-22T04:37:57.079Z,100.00
2023-05-22T04:40:23.785Z,100.00
2023-05-22T04:42:50.202Z,100.00
2023-05-22T04:45:19.285Z,100.00
2023-05-22T04:47:45.657Z,100.00
2023-05-22T04:50:14.244Z,100.00
2023-05-22T04:52:40.768Z,100.00
2023-05-22T04:55:08.563Z,100.00
2023-05-22T04:57:34.952Z,100.00
2023-05-22T05:00:01.780Z,100.00
2023-05-22T05:02:28.379Z,100.00
2023-05-22T05:04:54.813Z,100.00
2023-05-22T05:07:21.530Z,100.00
2023-05-22T05:09:47.914Z,100.00
2023-05-22T05:12:16.048Z,100.00
2023-05-22T05:14:42.450Z,100.00
2023-05-22T05:17:08.971Z,100.00
2023-05-22T05:19:37.023Z,100.00
2023-05-22T05:22:03.720Z,100.00
2023-05-22T05:24:30.177Z,100.00
2023-05-22T05:26:56.655Z,100.00
2023-05-22T05:29:23.159Z,100.00
2023-05-22T05:31:49.568Z,100.00
2023-05-22T05:34:16.016Z,100.00
2023-05-22T05:36:42.451Z,100.00
2023-05-22T05:39:09.257Z,100.00
2023-05-22T05:41:35.626Z,100.00
2023-05-22T05:44:02.100Z,100.00
2023-05-22T05:46:28.775Z,100.00
2023-05-22T05:48:55.290Z,100.00
2023-05-22T05:51:22.146Z,100.00
2023-05-22T05:53:49.361Z,100.00
2023-05-22T05:56:16.053Z,100.00
2023-05-22T05:58:42.470Z,100.00
2023-05-22T06:01:08.904Z,100.00
2023-05-22T06:03:35.514Z,99.84
2023-05-22T06:06:03.185Z,99.20
2023-05-22T06:08:29.822Z,98.87
2023-05-22T06:10:56.277Z,98.13
2023-05-22T06:13:22.628Z,95.57
2023-05-22T06:15:49.131Z,96.39
2023-05-22T06:18:17.202Z,96.11
2023-05-22T06:20:43.661Z,96.53
2023-05-22T06:23:11.020Z,93.83
2023-05-22T06:25:39.637Z,94.73
2023-05-22T06:28:06.372Z,91.97
2023-05-22T06:33:05.166Z,92.30
2023-05-22T06:35:31.582Z,91.62
2023-05-22T06:37:59.005Z,89.86
2023-05-22T06:40:25.819Z,89.47
2023-05-22T06:42:52.913Z,89.44
2023-05-22T06:45:19.882Z,90.48
2023-05-22T06:47:46.504Z,89.63
2023-05-22T06:50:13.014Z,86.20
2023-05-22T06:52:39.422Z,83.84
2023-05-22T06:55:07.690Z,84.65
2023-05-22T06:57:34.623Z,83.49
2023-05-22T07:00:01.057Z,84.08
2023-05-22T07:02:27.667Z,83.32
2023-05-22T07:07:46.818Z,82.77
2023-05-22T07:10:13.386Z,81.97
2023-05-22T07:12:39.733Z,81.18
2023-05-22T07:15:10.373Z,80.78
2023-05-22T07:17:36.743Z,78.32
2023-05-22T07:20:03.556Z,79.40
2023-05-22T07:22:29.924Z,78.40
2023-05-22T07:24:56.289Z,78.41
2023-05-22T07:27:22.672Z,77.86
2023-05-22T07:29:49.204Z,78.51
2023-05-22T07:32:15.657Z,77.41
2023-05-22T07:34:42.323Z,77.62
2023-05-22T07:37:16.730Z,75.89
2023-05-22T07:39:43.149Z,75.48
2023-05-22T07:42:09.561Z,73.24
2023-05-22T07:44:35.938Z,75.09
2023-05-22T07:47:02.351Z,75.08
2023-05-22T07:49:28.701Z,72.85
2023-05-22T07:51:55.083Z,74.77
2023-05-22T07:54:21.533Z,73.90
2023-05-22T07:56:48.025Z,72.50
2023-05-22T07:59:16.001Z,71.09
2023-05-22T08:01:42.444Z,70.21
2023-05-22T08:04:09.277Z,72.40
2023-05-22T08:06:36.128Z,70.97
2023-05-22T08:09:04.396Z,73.35
2023-05-22T08:11:31.102Z,73.95
2023-05-22T08:13:57.559Z,72.00
2023-05-22T08:16:24.080Z,70.78
2023-05-22T08:18:50.960Z,69.30
2023-05-22T08:21:18.659Z,68.43
2023-05-22T08:23:45.412Z,67.42
2023-05-22T08:26:11.866Z,68.21
2023-05-22T08:28:41.978Z,66.85
2023-05-22T08:31:08.376Z,68.05
2023-05-22T08:33:34.752Z,68.38
2023-05-22T08:36:01.201Z,67.77
2023-05-22T08:38:27.615Z,66.02
2023-05-22T08:40:55.568Z,66.81
2023-05-22T08:43:22.061Z,64.80
2023-05-22T08:45:55.959Z,64.70
2023-05-22T08:48:23.680Z,65.47
2023-05-22T08:50:57.347Z,66.72
2023-05-22T08:53:25.742Z,66.10
2023-05-22T08:55:53.468Z,65.95
2023-05-22T08:58:21.129Z,65.74
2023-05-22T09:00:47.975Z,65.04
2023-05-22T09:03:15.722Z,65.27
2023-05-22T09:05:42.276Z,62.28
2023-05-22T09:08:19.793Z,61.91
2023-05-22T09:10:47.725Z,61.91
2023-05-22T09:13:27.187Z,62.63
2023-05-22T09:15:58.033Z,62.31
2023-05-22T09:18:27.190Z,63.12
2023-05-22T09:20:53.625Z,63.18
2023-05-22T09:23:21.992Z,62.63
2023-05-22T09:25:48.409Z,63.21
2023-05-22T09:28:14.809Z,66.35
2023-05-22T09:30:42.446Z,66.34
2023-05-22T09:33:12.807Z,67.58
2023-05-22T09:35:39.740Z,67.51
2023-05-22T09:38:06.458Z,67.10
2023-05-22T09:40:34.834Z,67.39
2023-05-22T09:43:02.073Z,69.87
2023-05-22T09:45:28.412Z,70.86
2023-05-22T09:47:55.256Z,67.98
2023-05-22T09:50:21.697Z,68.11
2023-05-22T09:52:50.821Z,69.90
2023-05-22T09:55:19.929Z,68.63
2023-05-22T09:57:48.194Z,66.85
2023-05-22T10:00:17.761Z,68.24
2023-05-22T10:02:46.985Z,69.37
2023-05-22T10:05:23.868Z,68.78
2023-05-22T10:07:53.214Z,69.39
2023-05-22T10:10:23.201Z,67.99
2023-05-22T10:13:04.741Z,65.76
2023-05-22T10:15:32.188Z,65.15
2023-05-22T10:17:59.281Z,65.39
2023-05-22T10:20:29.165Z,65.58
2023-05-22T10:22:56.464Z,64.99
2023-05-22T10:25:23.256Z,65.68
2023-05-22T10:27:52.805Z,65.91
2023-05-22T10:30:40.724Z,64.57
2023-05-22T10:33:13.835Z,62.49
2023-05-22T10:35:43.463Z,64.58
2023-05-22T10:38:26.208Z,61.21
2023-05-22T10:40:53.501Z,62.29
2023-05-22T10:43:21.415Z,60.22
2023-05-22T10:45:48.354Z,59.64
2023-05-22T10:48:15.160Z,57.85
2023-05-22T10:50:52.696Z,60.38
2023-05-22T10:53:26.123Z,61.10
2023-05-22T10:55:54.802Z,60.08
2023-05-22T10:58:31.890Z,59.61
2023-05-22T11:01:15.930Z,59.32
2023-05-22T11:04:02.306Z,59.31
2023-05-22T11:06:45.721Z,61.39
2023-05-22T11:09:19.846Z,56.56
2023-05-22T11:11:46.996Z,57.86
2023-05-22T11:14:17.079Z,56.58
2023-05-22T11:16:43.775Z,57.59
2023-05-22T11:19:22.776Z,59.24
2023-05-22T11:21:50.567Z,53.00
2023-05-22T11:24:20.025Z,54.22
2023-05-22T11:27:02.270Z,55.08
2023-05-22T11:29:29.342Z,57.04
2023-05-22T11:31:57.749Z,55.06
2023-05-22T11:34:25.399Z,52.63
2023-05-22T11:36:59.728Z,50.91
2023-05-22T11:39:26.735Z,49.05
2023-05-22T11:41:53.287Z,47.65
2023-05-22T11:44:19.869Z,49.69
2023-05-22T11:46:46.359Z,49.33
2023-05-22T11:49:17.106Z,46.85
2023-05-22T11:51:44.177Z,46.99
2023-05-22T11:54:10.538Z,48.46
2023-05-22T11:56:36.872Z,47.42
2023-05-22T11:59:03.878Z,46.46
2023-05-22T12:01:30.287Z,48.59
2023-05-22T12:03:57.081Z,47.26
2023-05-22T12:06:23.642Z,45.96
2023-05-22T12:08:50.170Z,44.07
2023-05-22T12:11:16.692Z,43.76
2023-05-22T12:13:43.410Z,44.19
2023-05-22T12:16:22.207Z,44.58
2023-05-22T12:18:53.682Z,43.68
2023-05-22T12:21:20.922Z,43.48
2023-05-22T12:23:49.106Z,43.92
2023-05-22T12:26:15.692Z,44.12
2023-05-22T12:28:42.199Z,44.19
2023-05-22T12:31:08.612Z,44.16
2023-05-22T12:33:34.957Z,43.00
2023-05-22T12:36:07.883Z,42.14
2023-05-22T12:38:35.517Z,44.46
2023-05-22T12:41:02.131Z,42.54
2023-05-22T12:43:28.539Z,44.76
2023-05-22T12:45:55.089Z,43.44
2023-05-22T12:48:21.763Z,43.68
2023-05-22T12:50:48.574Z,43.44
2023-05-22T12:53:15.155Z,43.70
2023-05-22T12:55:41.589Z,43.59
2023-05-22T12:58:07.964Z,42.89
2023-05-22T13:00:34.676Z,42.55
2023-05-22T13:03:01.963Z,41.36
2023-05-22T13:05:28.486Z,39.75
2023-05-22T13:07:54.957Z,41.18
2023-05-22T13:10:21.433Z,42.02
2023-05-22T13:12:51.141Z,41.32
2023-05-22T13:15:18.622Z,42.44
2023-05-22T13:17:45.678Z,43.69
2023-05-22T13:20:12.513Z,41.36
2023-05-22T13:22:39.062Z,42.94
2023-05-22T13:25:06.038Z,43.78
2023-05-22T13:27:33.852Z,44.93
2023-05-22T13:30:00.547Z,46.12
2023-05-22T13:32:27.066Z,46.52
2023-05-22T13:34:53.505Z,45.82
2023-05-22T13:37:20.092Z,44.75
2023-05-22T13:39:46.639Z,44.79
2023-05-22T13:42:13.096Z,46.38
2023-05-22T13:44:39.559Z,47.50
2023-05-22T13:47:06.056Z,47.01
2023-05-22T13:49:32.592Z,48.20
2023-05-22T13:51:59.153Z,49.28
2023-05-22T13:54:25.860Z,47.94
2023-05-22T13:56:52.256Z,47.93
2023-05-22T13:59:18.621Z,47.77
2023-05-22T14:01:45.037Z,47.83
2023-05-22T14:04:11.453Z,46.46
2023-05-22T14:06:37.841Z,48.82
2023-05-22T14:09:07.090Z,47.61
2023-05-22T14:11:33.911Z,48.46
2023-05-22T14:14:00.396Z,49.69
2023-05-22T14:16:27.087Z,46.41
2023-05-22T14:18:53.536Z,45.70
2023-05-22T14:21:20.009Z,45.28
2023-05-22T14:23:46.529Z,46.75
2023-05-22T14:26:14.365Z,46.52
2023-05-22T14:28:41.325Z,44.73
2023-05-22T14:31:07.892Z,44.65
2023-05-22T14:33:35.674Z,46.22
2023-05-22T14:36:02.509Z,45.19
2023-05-22T14:38:33.487Z,45.70
2023-05-22T14:41:03.074Z,44.99
2023-05-22T14:43:29.565Z,46.17
2023-05-22T14:45:57.754Z,46.11
2023-05-22T14:48:26.227Z,45.64
2023-05-22T14:50:55.718Z,45.21
2023-05-22T14:53:22.364Z,45.07
2023-05-22T14:55:48.848Z,44.90
2023-05-22T14:58:15.273Z,44.77
2023-05-22T15:00:45.681Z,44.83
2023-05-22T15:03:12.792Z,48.45
2023-05-22T15:05:39.488Z,49.21
2023-05-22T15:08:06.155Z,50.97
2023-05-22T15:10:32.700Z,50.65
2023-05-22T15:12:59.182Z,50.60
2023-05-22T15:15:25.561Z,48.49
2023-05-22T15:17:52.005Z,50.54
2023-05-22T15:20:18.535Z,48.20
2023-05-22T15:22:44.946Z,47.81
2023-05-22T15:25:14.789Z,48.26
2023-05-22T15:27:42.618Z,46.27
2023-05-22T15:30:09.969Z,47.07
2023-05-22T15:32:36.840Z,46.65
2023-05-22T15:35:03.582Z,48.10
2023-05-22T15:37:33.928Z,46.80
2023-05-22T15:40:01.674Z,49.44
2023-05-22T15:42:28.341Z,49.55
2023-05-22T15:44:55.178Z,48.03
2023-05-22T15:47:21.597Z,47.66
2023-05-22T15:49:48.032Z,49.31
2023-05-22T15:52:14.538Z,49.22
2023-05-22T15:54:41.072Z,50.48
2023-05-22T15:57:07.500Z,49.39
2023-05-22T15:59:33.880Z,49.65
2023-05-22T16:02:00.331Z,50.32
2023-05-22T16:04:26.710Z,49.05
2023-05-22T16:06:53.163Z,48.56
2023-05-22T16:09:19.698Z,48.42
2023-05-22T16:11:46.137Z,47.26
2023-05-22T16:14:12.563Z,47.11
2023-05-22T16:16:39.099Z,46.49
2023-05-22T16:19:05.734Z,48.82
2023-05-22T16:21:32.142Z,49.28
2023-05-22T16:23:58.573Z,49.33
2023-05-22T16:26:25.205Z,53.36
2023-05-22T16:28:51.704Z,56.86
2023-05-22T16:31:19.723Z,58.14
2023-05-22T16:33:46.160Z,58.78
2023-05-22T16:36:12.573Z,61.22
2023-05-22T16:38:38.979Z,61.91
2023-05-22T16:41:05.393Z,61.86
2023-05-22T16:43:31.769Z,63.12
2023-05-22T16:45:58.119Z,67.49
2023-05-22T16:48:24.535Z,77.04
2023-05-22T16:50:51.004Z,83.46
2023-05-22T16:53:17.483Z,97.02
2023-05-22T16:55:44.126Z,93.68
2023-05-22T16:58:11.573Z,95.40
2023-05-22T17:00:39.922Z,95.18
2023-05-22T17:03:08.064Z,98.08
2023-05-22T17:05:35.670Z,100.00
2023-05-22T17:08:02.051Z,100.00
2023-05-22T17:10:28.467Z,100.00
2023-05-22T17:12:54.964Z,100.00
2023-05-22T17:15:21.364Z,100.00
2023-05-22T17:17:47.760Z,100.00
2023-05-22T17:20:14.306Z,100.00
2023-05-22T17:22:42.790Z,100.00
2023-05-22T17:25:09.656Z,100.00
2023-05-22T17:27:36.990Z,100.00
2023-05-22T17:30:05.140Z,100.00
2023-05-22T17:32:31.676Z,100.00
2023-05-22T17:34:58.492Z,100.00
2023-05-22T17:37:24.937Z,100.00
2023-05-22T17:39:51.629Z,100.00
2023-05-22T17:42:18.022Z,100.00
2023-05-22T17:44:44.497Z,100.00
2023-05-22T17:47:10.866Z,100.00
2023-05-22T17:49:37.565Z,100.00
2023-05-22T17:52:04.021Z,100.00
2023-05-22T17:54:36.694Z,100.00
2023-05-22T17:57:04.064Z,100.00
2023-05-22T17:59:32.171Z,100.00
2023-05-22T18:01:58.835Z,100.00
2023-05-22T18:04:25.477Z,100.00
2023-05-22T18:06:52.126Z,100.00
2023-05-22T18:09:18.494Z,100.00
2023-05-22T18:11:44.851Z,100.00
2023-05-22T18:14:11.213Z,100.00
2023-05-22T18:16:37.667Z,100.00
2023-05-22T18:19:04.082Z,100.00
2023-05-22T18:21:30.734Z,100.00
2023-05-22T18:23:57.143Z,99.20
2023-05-22T18:26:23.485Z,100.00
2023-05-22T18:28:49.833Z,100.00
2023-05-22T18:31:16.521Z,100.00
2023-05-22T18:33:45.001Z,100.00
2023-05-22T18:36:12.926Z,100.00
2023-05-22T18:38:39.358Z,100.00
2023-05-22T18:41:06.661Z,100.00
2023-05-22T18:43:33.145Z,100.00
2023-05-22T18:45:59.640Z,100.00
2023-05-22T18:48:28.024Z,100.00
2023-05-22T18:50:57.161Z,100.00
2023-05-22T18:53:25.049Z,100.00
2023-05-22T18:55:52.209Z,100.00
2023-05-22T18:58:18.616Z,100.00
2023-05-22T19:00:45.582Z,100.00
2023-05-22T19:03:12.218Z,100.00
2023-05-22T19:05:38.691Z,100.00
2023-05-22T19:08:05.767Z,100.00
2023-05-22T19:10:32.976Z,100.00
2023-05-22T19:12:59.354Z,100.00
2023-05-22T19:15:26.113Z,100.00
2023-05-22T19:17:52.684Z,100.00
2023-05-22T19:20:19.211Z,100.00
2023-05-22T19:22:45.646Z,100.00
2023-05-22T19:25:12.040Z,100.00
2023-05-22T19:27:39.286Z,100.00
2023-05-22T19:30:07.138Z,100.00
2023-05-22T19:32:33.589Z,100.00
2023-05-22T19:34:59.964Z,100.00
2023-05-22T19:37:26.473Z,100.00
2023-05-22T19:39:53.920Z,100.00
2023-05-22T19:42:20.395Z,100.00
2023-05-22T19:44:47.023Z,100.00
2023-05-22T19:47:13.339Z,100.00
2023-05-22T19:49:39.726Z,100.00
2023-05-22T19:52:06.568Z,100.00
2023-05-22T19:54:33.030Z,100.00
2023-05-22T19:56:59.434Z,100.00
2023-05-22T19:59:26.845Z,100.00
2023-05-22T20:01:53.860Z,100.00
2023-05-22T20:04:21.402Z,100.00
2023-05-22T20:06:48.437Z,100.00
2023-05-22T20:09:15.276Z,100.00
2023-05-22T20:11:41.740Z,100.00
2023-05-22T20:14:08.102Z,100.00
2023-05-22T20:16:34.567Z,100.00
2023-05-22T20:19:02.425Z,100.00
2023-05-22T20:21:29.171Z,100.00
2023-05-22T20:23:56.414Z,100.00
2023-05-22T20:26:23.030Z,100.00
2023-05-22T20:28:49.667Z,100.00
2023-05-22T20:31:16.498Z,100.00
2023-05-22T20:33:42.995Z,100.00
2023-05-22T20:36:09.668Z,100.00
2023-05-22T20:38:36.098Z,100.00
2023-05-22T20:41:02.518Z,100.00
2023-05-22T20:43:30.661Z,100.00
2023-05-22T20:45:57.325Z,100.00
2023-05-22T20:48:24.139Z,100.00
2023-05-22T20:50:52.881Z,100.00
2023-05-22T20:53:19.490Z,100.00
2023-05-22T20:55:45.933Z,100.00
2023-05-22T20:58:14.100Z,100.00
2023-05-22T21:00:41.928Z,100.00
2023-05-22T21:03:08.601Z,100.00
2023-05-22T21:05:35.236Z,100.00
2023-05-22T21:08:01.602Z,100.00
2023-05-22T21:10:28.037Z,100.00
2023-05-22T21:12:54.426Z,100.00
2023-05-22T21:15:20.962Z,100.00
2023-05-22T21:17:47.403Z,100.00
2023-05-22T21:20:13.893Z,100.00
2023-05-22T21:22:40.326Z,100.00
2023-05-22T21:25:07.377Z,100.00
2023-05-22T21:27:33.744Z,100.00
2023-05-22T21:30:00.333Z,100.00
2023-05-22T21:32:26.774Z,100.00
2023-05-22T21:34:53.213Z,100.00
2023-05-22T21:37:19.622Z,100.00
2023-05-22T21:39:46.071Z,100.00
2023-05-22T21:42:14.995Z,100.00
2023-05-22T21:44:41.453Z,100.00
2023-05-22T21:47:08.026Z,100.00
2023-05-22T21:49:34.450Z,100.00
2023-05-22T21:52:00.811Z,100.00
2023-05-22T21:54:27.169Z,100.00
2023-05-22T21:56:54.201Z,100.00
2023-05-22T21:59:20.703Z,100.00
2023-05-22T22:01:47.153Z,100.00
2023-05-22T22:04:13.651Z,100.00
2023-05-22T22:06:40.179Z,100.00
2023-05-22T22:09:06.587Z,100.00
2023-05-22T22:11:32.988Z,100.00
2023-05-22T22:13:59.379Z,100.00
2023-05-22T22:16:26.000Z,100.00
2023-05-22T22:18:52.479Z,100.00
2023-05-22T22:21:18.944Z,100.00
2023-05-22T22:23:45.471Z,100.00
2023-05-22T22:26:14.745Z,100.00
2023-05-22T22:28:41.215Z,100.00
2023-05-22T22:31:07.578Z,100.00
2023-05-22T22:33:34.028Z,100.00
2023-05-22T22:36:00.501Z,100.00
2023-05-22T22:38:26.942Z,100.00
2023-05-22T22:40:53.263Z,100.00
2023-05-22T22:43:19.738Z,100.00
2023-05-22T22:45:46.342Z,100.00
2023-05-22T22:48:12.676Z,100.00
2023-05-22T22:50:39.320Z,100.00
2023-05-22T22:53:05.940Z,100.00
2023-05-22T22:55:32.577Z,100.00
2023-05-22T22:57:59.460Z,100.00
2023-05-22T23:00:25.884Z,100.00
2023-05-22T23:02:52.240Z,100.00
2023-05-22T23:05:20.317Z,100.00
2023-05-22T23:07:47.936Z,100.00
2023-05-22T23:10:15.532Z,100.00
2023-05-22T23:12:42.022Z,100.00
2023-05-22T23:15:09.272Z,100.00
2023-05-22T23:17:35.924Z,100.00
2023-05-22T23:20:02.408Z,100.00
2023-05-22T23:22:28.851Z,100.00
2023-05-22T23:24:55.342Z,100.00
2023-05-22T23:27:21.881Z,100.00
2023-05-22T23:29:48.416Z,100.00
2023-05-22T23:32:15.030Z,100.00
2023-05-22T23:34:42.193Z,100.00
2023-05-22T23:37:08.610Z,100.00
2023-05-22T23:39:35.024Z,100.00
2023-05-22T23:42:04.683Z,100.00
2023-05-22T23:44:31.441Z,100.00
2023-05-22T23:46:57.976Z,100.00
2023-05-22T23:49:24.467Z,100.00
2023-05-22T23:51:50.974Z,100.00
2023-05-22T23:54:17.884Z,100.00
2023-05-22T23:56:44.917Z,100.00
2023-05-22T23:59:11.339Z,100.00
